Skip Navigation LinksHome page > Weather > Current weather Skip Navigation Links

Current Weather

Jakutsk, Russia

For information only: do not use for flight planning or navigation.
Latest weather
Observation time Saturday, November 28, 2015 9:00 AM JST
Local time Saturday, November 28, 2015 9:25 AM JST
Flight conditions Instrument Meteorological Conditions
Wind direction North (360°)
Wind speed 2 mph
Visibility 2 mi.
Present weather mist
Sky condition
Ceiling unlimited
Cloud layer scattered clouds 1,000 ft.
Temperature -33°F
Dewpoint -38°F
Altimeter 30.30 in.Hg
QF 9:40 PM
Derived measurements
Relative humidity 74%
Wind chill -33°F
Density altitude -6898 ft.
No significant changes expected in the next two hours.
METAR UEEE 280000Z 36001MPS 3200 BR SCT010 M36/M39 Q1026 R23L/490150 NOSIG RMK QFE760


Location code

InnerDrive.Weather 4.0.5722.1 Release CLR 4.0.30319.34014
Copyright ©2015 Inner Drive Technology. All rights reserved. Portions Copyright ©1986-2015 David Braverman.

Find weather

Site navigation

Skip Navigation Links

Place info

Page info

PayPal - The safer, easier way to pay online!

Return home.

Copyright ©2015 Inner Drive Technology. Purveyors of fine, hand-crafted computer software. Page printed 2015-11-28T00:25:20 UTC.